createdAt,value
2022-11-29T00:01:34.461Z,17.83
2022-11-29T00:04:03.196Z,17.85
2022-11-29T00:06:32.803Z,21.33
2022-11-29T00:09:06.089Z,18.98
2022-11-29T00:11:54.816Z,18.40
2022-11-29T00:14:23.793Z,20.10
2022-11-29T00:16:53.352Z,19.70
2022-11-29T00:19:21.586Z,21.05
2022-11-29T00:21:49.998Z,21.95
2022-11-29T00:24:18.485Z,19.10
2022-11-29T00:26:48.116Z,17.98
2022-11-29T00:29:16.323Z,18.85
2022-11-29T00:31:44.832Z,18.60
2022-11-29T00:34:13.485Z,20.02
2022-11-29T00:36:41.841Z,18.53
2022-11-29T00:39:11.645Z,18.13
2022-11-29T00:41:40.081Z,20.67
2022-11-29T00:44:12.834Z,17.67
2022-11-29T00:46:43.575Z,19.10
2022-11-29T00:49:11.532Z,18.93
2022-11-29T00:51:39.661Z,17.77
2022-11-29T00:54:07.646Z,18.70
2022-11-29T00:56:35.806Z,17.73
2022-11-29T00:59:03.730Z,19.70
2022-11-29T01:01:33.270Z,19.77
2022-11-29T01:04:01.453Z,15.77
2022-11-29T01:06:29.604Z,17.75
2022-11-29T01:08:57.505Z,17.38
2022-11-29T01:11:27.711Z,17.17
2022-11-29T01:13:57.345Z,17.10
2022-11-29T01:16:26.124Z,16.88
2022-11-29T01:18:55.438Z,19.80
2022-11-29T01:21:25.014Z,17.20
2022-11-29T01:23:53.754Z,16.75
2022-11-29T01:26:23.761Z,19.80
2022-11-29T01:28:53.234Z,18.55
2022-11-29T01:31:23.969Z,16.80
2022-11-29T01:33:55.733Z,17.50
2022-11-29T01:36:24.408Z,17.45
2022-11-29T01:38:52.571Z,17.30
2022-11-29T01:41:23.447Z,17.45
2022-11-29T01:44:00.495Z,19.85
2022-11-29T01:46:30.017Z,16.63
2022-11-29T01:49:03.093Z,18.02
2022-11-29T01:51:31.897Z,18.73
2022-11-29T01:53:59.930Z,17.80
2022-11-29T01:56:29.489Z,17.42
2022-11-29T01:58:57.498Z,16.73
2022-11-29T02:01:26.581Z,17.42
2022-11-29T02:03:54.883Z,17.03
2022-11-29T02:06:24.610Z,16.85
2022-11-29T02:08:52.558Z,16.20
2022-11-29T02:11:48.689Z,18.42
2022-11-29T02:14:31.105Z,16.98
2022-11-29T02:17:04.413Z,17.37
2022-11-29T02:19:57.487Z,17.70
2022-11-29T02:22:32.008Z,18.45
2022-11-29T02:25:11.700Z,17.50
2022-11-29T02:28:13.802Z,16.95
2022-11-29T02:30:56.363Z,17.20
2022-11-29T02:33:43.493Z,16.80
2022-11-29T02:36:26.332Z,17.52
2022-11-29T02:39:09.014Z,16.73
2022-11-29T02:41:50.703Z,19.17
2022-11-29T02:44:52.121Z,16.13
2022-11-29T02:47:27.185Z,15.77
2022-11-29T02:50:12.424Z,15.73
2022-11-29T02:52:46.690Z,19.58
2022-11-29T02:55:19.181Z,16.35
2022-11-29T02:57:53.168Z,17.33
2022-11-29T03:00:22.763Z,16.65
2022-11-29T03:02:56.900Z,18.70
2022-11-29T03:05:33.546Z,17.75
2022-11-29T03:08:07.199Z,16.77
2022-11-29T03:10:40.704Z,17.57
2022-11-29T03:13:14.673Z,16.70
2022-11-29T03:15:53.807Z,18.73
2022-11-29T03:18:33.840Z,15.23
2022-11-29T03:21:09.934Z,15.65
2022-11-29T03:23:39.280Z,17.07
2022-11-29T03:26:10.317Z,15.65
2022-11-29T03:28:40.159Z,17.38
2022-11-29T03:31:14.151Z,18.58
2022-11-29T03:33:48.921Z,15.60
2022-11-29T03:36:25.034Z,16.17
2022-11-29T03:38:53.808Z,16.67
2022-11-29T03:41:26.487Z,17.33
2022-11-29T03:43:58.524Z,17.35
2022-11-29T03:46:31.726Z,18.92
2022-11-29T03:49:03.794Z,18.37
2022-11-29T03:51:40.333Z,17.35
2022-11-29T03:54:11.414Z,18.33
2022-11-29T03:56:41.339Z,16.40
2022-11-29T03:59:22.997Z,16.80
2022-11-29T04:02:03.775Z,16.03
2022-11-29T04:04:55.765Z,16.70
2022-11-29T04:07:40.498Z,16.58
2022-11-29T04:10:16.368Z,16.50
2022-11-29T04:13:21.751Z,15.70
2022-11-29T04:16:07.461Z,17.83
2022-11-29T04:19:00.220Z,15.18
2022-11-29T04:21:45.645Z,20.65
2022-11-29T04:24:44.532Z,17.50
2022-11-29T04:27:30.845Z,16.38
2022-11-29T04:30:07.748Z,16.63
2022-11-29T04:32:52.625Z,16.25
2022-11-29T04:35:36.621Z,18.80
2022-11-29T04:38:16.408Z,17.17
2022-11-29T04:40:57.292Z,18.30
2022-11-29T04:43:49.673Z,21.03
2022-11-29T04:46:31.366Z,18.55
2022-11-29T04:49:26.889Z,20.42
2022-11-29T04:52:08.086Z,16.77
2022-11-29T04:54:40.489Z,18.65
2022-11-29T04:57:14.103Z,19.63
2022-11-29T04:59:45.672Z,19.10
2022-11-29T05:02:28.923Z,20.38
2022-11-29T05:05:00.494Z,21.25
2022-11-29T05:07:32.402Z,22.38
2022-11-29T05:10:07.872Z,25.20
2022-11-29T05:12:43.500Z,21.75
2022-11-29T05:15:25.007Z,25.15
2022-11-29T05:18:04.555Z,20.92
2022-11-29T05:20:40.072Z,19.08
2022-11-29T05:23:23.410Z,20.57
2022-11-29T05:25:55.624Z,24.10
2022-11-29T05:28:31.185Z,24.98
2022-11-29T05:31:17.226Z,21.45
2022-11-29T05:34:21.791Z,23.35
2022-11-29T05:36:57.256Z,20.67
2022-11-29T05:39:36.854Z,23.05
2022-11-29T05:42:18.573Z,24.38
2022-11-29T05:44:50.464Z,22.70
2022-11-29T05:47:26.879Z,20.67
2022-11-29T05:50:05.550Z,23.17
2022-11-29T05:52:43.209Z,22.75
2022-11-29T05:55:25.903Z,20.50
2022-11-29T05:57:57.798Z,25.35
2022-11-29T06:00:30.233Z,23.25
2022-11-29T06:03:03.626Z,24.63
2022-11-29T06:05:36.399Z,26.05
2022-11-29T06:08:09.006Z,26.40
2022-11-29T06:10:40.893Z,24.33
2022-11-29T06:13:21.832Z,23.80
2022-11-29T06:16:15.826Z,24.50
2022-11-29T06:18:59.941Z,23.50
2022-11-29T06:21:34.365Z,23.10
2022-11-29T06:24:25.896Z,21.52
2022-11-29T06:27:09.213Z,23.95
2022-11-29T06:29:45.296Z,20.10
2022-11-29T06:32:22.286Z,20.63
2022-11-29T06:34:54.427Z,24.50
2022-11-29T06:37:25.392Z,22.58
2022-11-29T06:39:55.236Z,24.80
2022-11-29T06:42:23.527Z,23.43
2022-11-29T06:44:52.064Z,22.08
2022-11-29T06:47:29.483Z,21.27
2022-11-29T06:49:59.865Z,21.23
2022-11-29T06:52:37.868Z,22.05
2022-11-29T06:55:15.702Z,19.93
2022-11-29T06:57:51.955Z,21.38
2022-11-29T07:00:22.467Z,26.63
2022-11-29T07:03:07.540Z,26.90
2022-11-29T07:05:36.521Z,27.83
2022-11-29T07:08:07.667Z,28.50
2022-11-29T07:10:38.523Z,31.90
2022-11-29T07:13:07.034Z,34.92
2022-11-29T07:15:36.369Z,22.88
2022-11-29T07:18:14.556Z,20.38
2022-11-29T07:20:52.349Z,19.00
2022-11-29T07:23:28.086Z,22.67
2022-11-29T07:26:05.003Z,21.02
2022-11-29T07:28:43.159Z,21.52
2022-11-29T07:31:17.617Z,22.92
2022-11-29T07:33:53.721Z,21.13
2022-11-29T07:36:30.505Z,21.20
2022-11-29T07:39:09.158Z,21.27
2022-11-29T07:41:42.009Z,19.50
2022-11-29T07:44:21.226Z,20.17
2022-11-29T07:46:49.239Z,20.00
2022-11-29T07:49:18.898Z,21.70
2022-11-29T07:51:46.844Z,22.45
2022-11-29T07:54:18.272Z,20.70
2022-11-29T07:56:46.214Z,24.02
2022-11-29T07:59:14.644Z,23.43
2022-11-29T08:01:42.834Z,28.77
2022-11-29T08:04:11.432Z,26.23
2022-11-29T08:06:40.957Z,26.13
2022-11-29T08:09:09.112Z,25.17
2022-11-29T08:11:37.209Z,23.93
2022-11-29T08:14:06.453Z,24.58
2022-11-29T08:16:34.912Z,23.13
2022-11-29T08:19:03.313Z,24.90
2022-11-29T08:21:31.249Z,24.63
2022-11-29T08:24:00.740Z,24.83
2022-11-29T08:26:31.574Z,23.70
2022-11-29T08:29:00.308Z,24.60
2022-11-29T08:31:28.227Z,27.63
2022-11-29T08:33:56.393Z,23.83
2022-11-29T08:36:24.423Z,25.00
2022-11-29T08:38:59.259Z,23.20
2022-11-29T08:41:32.140Z,22.45
2022-11-29T08:44:00.348Z,25.55
2022-11-29T08:46:48.327Z,22.83
2022-11-29T08:49:16.781Z,21.40
2022-11-29T08:51:44.964Z,24.30
2022-11-29T08:54:12.239Z,22.05
2022-11-29T08:59:29.575Z,19.70
2022-11-29T09:01:57.528Z,22.23
2022-11-29T09:04:25.893Z,20.15
2022-11-29T09:06:53.793Z,22.85
2022-11-29T09:09:22.144Z,23.70
2022-11-29T09:11:51.730Z,21.30
2022-11-29T09:14:22.899Z,22.17
2022-11-29T09:16:51.338Z,22.50
2022-11-29T09:19:19.736Z,21.02
2022-11-29T09:21:47.652Z,21.48
2022-11-29T09:24:15.968Z,21.50
2022-11-29T09:26:46.835Z,20.87
2022-11-29T09:29:17.763Z,21.05
2022-11-29T09:31:45.913Z,21.50
2022-11-29T09:34:14.674Z,22.48
2022-11-29T09:36:43.969Z,23.30
2022-11-29T09:39:13.246Z,20.40
2022-11-29T09:41:52.924Z,23.30
2022-11-29T09:44:29.794Z,21.25
2022-11-29T09:47:03.160Z,22.08
2022-11-29T09:49:43.064Z,23.50
2022-11-29T09:52:15.923Z,22.90
2022-11-29T09:54:56.624Z,21.25
2022-11-29T09:57:26.970Z,21.15
2022-11-29T09:59:59.321Z,20.08
2022-11-29T10:02:34.027Z,21.92
2022-11-29T10:05:08.243Z,21.67
2022-11-29T10:07:39.490Z,23.98
2022-11-29T10:10:12.407Z,24.80
2022-11-29T10:12:43.947Z,23.48
2022-11-29T10:15:17.762Z,23.10
2022-11-29T10:17:49.679Z,25.00
2022-11-29T10:20:19.540Z,24.60
2022-11-29T10:22:53.405Z,25.50
2022-11-29T10:25:25.767Z,25.98
2022-11-29T10:27:54.382Z,24.88
2022-11-29T10:30:24.255Z,25.17
2022-11-29T10:32:57.092Z,23.30
2022-11-29T10:35:25.513Z,23.27
2022-11-29T10:38:22.759Z,21.75
2022-11-29T10:40:47.094Z,21.27
2022-11-29T10:43:15.078Z,20.83
2022-11-29T10:45:50.318Z,19.23
2022-11-29T10:48:19.888Z,19.65
2022-11-29T10:50:49.923Z,18.65
2022-11-29T10:53:19.965Z,19.55
2022-11-29T10:55:51.665Z,21.57
2022-11-29T10:58:27.992Z,20.02
2022-11-29T11:01:00.815Z,20.85
2022-11-29T11:03:39.178Z,20.35
2022-11-29T11:06:10.617Z,20.65
2022-11-29T11:08:39.519Z,21.53
2022-11-29T11:11:08.579Z,21.52
2022-11-29T11:13:37.159Z,22.33
2022-11-29T11:16:12.239Z,22.05
2022-11-29T11:18:40.227Z,23.08
2022-11-29T11:21:10.823Z,21.53
2022-11-29T11:23:43.677Z,23.17
2022-11-29T11:26:13.912Z,20.88
2022-11-29T11:28:45.921Z,24.35
2022-11-29T11:31:15.963Z,24.13
2022-11-29T11:33:45.062Z,22.37
2022-11-29T11:36:15.122Z,23.25
2022-11-29T11:38:50.861Z,20.52
2022-11-29T11:41:44.500Z,21.67
2022-11-29T11:44:46.464Z,23.33
2022-11-29T11:47:17.010Z,22.03
2022-11-29T11:49:49.171Z,22.45
2022-11-29T11:52:21.996Z,22.33
2022-11-29T11:54:53.051Z,22.50
2022-11-29T11:57:22.401Z,24.20
2022-11-29T11:59:51.090Z,22.03
2022-11-29T12:02:37.141Z,22.15
2022-11-29T12:05:10.001Z,25.35
2022-11-29T12:08:07.250Z,20.45
2022-11-29T12:10:34.702Z,25.02
2022-11-29T12:13:03.466Z,23.67
2022-11-29T12:15:34.125Z,20.63
2022-11-29T12:18:07.178Z,23.98
2022-11-29T12:20:39.566Z,23.00
2022-11-29T12:23:23.065Z,24.70
2022-11-29T12:25:53.400Z,20.70
2022-11-29T12:28:22.457Z,22.52
2022-11-29T12:30:57.055Z,21.48
2022-11-29T12:33:37.391Z,23.25
2022-11-29T12:36:25.999Z,22.08
2022-11-29T12:39:05.217Z,22.80
2022-11-29T12:41:40.284Z,23.10
2022-11-29T12:44:19.486Z,21.98
2022-11-29T12:47:02.101Z,25.45
2022-11-29T12:49:51.199Z,22.73
2022-11-29T12:52:23.810Z,23.77
2022-11-29T12:54:59.769Z,23.33
2022-11-29T12:57:34.502Z,24.35
2022-11-29T13:00:08.077Z,21.17
2022-11-29T13:02:44.042Z,24.23
2022-11-29T13:05:20.309Z,26.07
2022-11-29T13:08:05.546Z,25.13
2022-11-29T13:10:43.157Z,25.25
2022-11-29T13:13:19.294Z,23.55
2022-11-29T13:15:51.682Z,25.10
2022-11-29T13:18:23.043Z,23.50
2022-11-29T13:20:57.917Z,23.58
2022-11-29T13:23:45.809Z,24.15
2022-11-29T13:26:19.885Z,25.20
2022-11-29T13:28:47.936Z,25.50
2022-11-29T13:31:19.513Z,26.00
2022-11-29T13:33:57.837Z,26.67
2022-11-29T13:36:33.152Z,26.40
2022-11-29T13:39:09.052Z,28.40
2022-11-29T13:41:42.222Z,27.08
2022-11-29T13:44:16.989Z,26.97
2022-11-29T13:46:48.153Z,31.55
2022-11-29T13:49:22.203Z,27.75
2022-11-29T13:52:05.056Z,30.38
2022-11-29T13:54:34.309Z,30.30
2022-11-29T13:57:04.119Z,31.03
2022-11-29T13:59:33.636Z,29.67
2022-11-29T14:02:01.934Z,35.88
2022-11-29T14:04:34.149Z,31.70
2022-11-29T14:07:06.586Z,34.72
2022-11-29T14:09:37.953Z,32.07
2022-11-29T14:12:36.685Z,32.80
2022-11-29T14:15:16.010Z,36.83
2022-11-29T14:17:53.194Z,37.08
2022-11-29T14:20:58.098Z,38.67
2022-11-29T14:23:40.351Z,34.23
2022-11-29T14:26:28.570Z,41.28
2022-11-29T14:28:57.960Z,38.85
2022-11-29T14:31:50.572Z,37.85
2022-11-29T14:34:39.205Z,40.30
2022-11-29T14:37:20.635Z,36.57
2022-11-29T14:39:52.229Z,35.47
2022-11-29T14:42:21.921Z,34.97
2022-11-29T14:44:52.047Z,34.92
2022-11-29T14:47:26.209Z,37.17
2022-11-29T14:49:57.141Z,35.17
2022-11-29T14:52:30.341Z,40.28
2022-11-29T14:55:02.873Z,38.25
2022-11-29T14:57:53.502Z,33.88
2022-11-29T15:00:23.032Z,34.78
2022-11-29T15:02:52.190Z,41.33
2022-11-29T15:05:22.024Z,40.80
2022-11-29T15:07:53.810Z,40.28
2022-11-29T15:10:26.942Z,42.05
2022-11-29T15:12:54.963Z,40.33
2022-11-29T15:15:35.467Z,44.17
2022-11-29T15:18:12.449Z,39.15
2022-11-29T15:20:54.904Z,44.88
2022-11-29T15:23:22.853Z,40.90
2022-11-29T15:25:54.373Z,44.92
2022-11-29T15:28:23.999Z,44.07
2022-11-29T15:31:01.950Z,46.10
2022-11-29T15:33:30.613Z,41.58
2022-11-29T15:36:06.422Z,47.05
2022-11-29T15:38:42.765Z,43.47
2022-11-29T15:41:22.169Z,42.60
2022-11-29T15:43:53.459Z,46.70
2022-11-29T15:46:22.911Z,41.20
2022-11-29T15:48:50.851Z,40.08
2022-11-29T15:51:25.027Z,39.17
2022-11-29T15:54:11.792Z,33.40
2022-11-29T15:56:45.883Z,36.35
2022-11-29T15:59:19.804Z,39.35
2022-11-29T16:01:49.477Z,35.22
2022-11-29T16:04:19.977Z,39.47
2022-11-29T16:06:48.977Z,35.90
2022-11-29T16:09:18.936Z,32.65
2022-11-29T16:11:48.869Z,40.75
2022-11-29T16:14:21.865Z,36.80
2022-11-29T16:16:53.262Z,37.03
2022-11-29T16:19:32.758Z,33.90
2022-11-29T16:22:15.840Z,34.80
2022-11-29T16:24:53.539Z,34.45
2022-11-29T16:27:23.688Z,36.90
2022-11-29T16:29:52.640Z,39.22
2022-11-29T16:32:26.132Z,34.40
2022-11-29T16:34:54.527Z,32.45
2022-11-29T16:37:24.085Z,32.95
2022-11-29T16:39:53.645Z,32.30
2022-11-29T16:42:26.056Z,32.20
2022-11-29T16:45:21.327Z,33.27
2022-11-29T16:47:52.749Z,34.75
2022-11-29T16:50:22.228Z,35.72
2022-11-29T16:52:56.137Z,35.97
2022-11-29T16:55:24.821Z,39.10
2022-11-29T16:57:54.288Z,33.90
2022-11-29T17:00:25.401Z,35.05
2022-11-29T17:02:53.641Z,36.85
2022-11-29T17:05:21.974Z,32.97
2022-11-29T17:07:50.475Z,38.60
2022-11-29T17:10:20.835Z,34.13
2022-11-29T17:12:50.075Z,36.75
2022-11-29T17:15:19.386Z,37.13
2022-11-29T17:17:47.734Z,37.45
2022-11-29T17:20:15.780Z,35.55
2022-11-29T17:22:43.949Z,37.83
2022-11-29T17:25:12.344Z,32.33
2022-11-29T17:27:40.910Z,40.03
2022-11-29T17:30:11.211Z,35.53
2022-11-29T17:32:40.886Z,39.83
2022-11-29T17:35:09.339Z,44.33
2022-11-29T17:37:37.554Z,50.13
2022-11-29T17:40:06.250Z,41.80
2022-11-29T17:42:34.550Z,44.65
2022-11-29T17:45:02.549Z,37.13
2022-11-29T17:47:30.721Z,40.50
2022-11-29T17:50:00.453Z,37.00
2022-11-29T17:52:28.655Z,36.75
2022-11-29T17:54:56.526Z,35.80
2022-11-29T17:57:24.878Z,36.25
2022-11-29T17:59:52.849Z,41.00
2022-11-29T18:02:21.015Z,40.55
2022-11-29T18:04:48.945Z,39.50
2022-11-29T18:07:18.464Z,37.63
2022-11-29T18:09:47.350Z,39.00
2022-11-29T18:12:15.803Z,47.83
2022-11-29T18:14:43.977Z,46.58
2022-11-29T18:17:12.538Z,45.33
2022-11-29T18:19:40.523Z,55.08
2022-11-29T18:22:09.152Z,52.67
2022-11-29T18:24:41.248Z,45.43
2022-11-29T18:27:09.478Z,46.05
2022-11-29T18:29:45.922Z,38.90
2022-11-29T18:32:14.155Z,39.70
2022-11-29T18:34:42.169Z,40.67
2022-11-29T18:37:15.989Z,45.37
2022-11-29T18:39:49.966Z,38.10
2022-11-29T18:42:18.189Z,37.60
2022-11-29T18:44:46.225Z,37.05
2022-11-29T18:47:14.604Z,35.88
2022-11-29T18:49:42.502Z,32.47
2022-11-29T18:52:10.617Z,37.95
2022-11-29T18:54:38.560Z,36.10
2022-11-29T18:57:08.091Z,38.83
2022-11-29T18:59:35.986Z,32.28
2022-11-29T19:02:04.192Z,38.03
2022-11-29T19:04:32.146Z,37.10
2022-11-29T19:07:00.285Z,36.90
2022-11-29T19:09:28.222Z,34.00
2022-11-29T19:11:56.352Z,36.90
2022-11-29T19:14:25.575Z,39.50
2022-11-29T19:16:53.980Z,33.40
2022-11-29T19:19:21.839Z,37.90
2022-11-29T19:21:50.007Z,37.30
2022-11-29T19:24:18.938Z,39.50
2022-11-29T19:26:50.015Z,36.87
2022-11-29T19:29:18.363Z,35.88
2022-11-29T19:31:48.049Z,35.35
2022-11-29T19:34:16.112Z,34.35
2022-11-29T19:36:45.383Z,34.25
2022-11-29T19:39:15.177Z,30.20
2022-11-29T19:41:44.438Z,32.53
2022-11-29T19:44:13.066Z,31.50
2022-11-29T19:46:43.241Z,30.05
2022-11-29T19:49:13.016Z,34.03
2022-11-29T19:51:41.301Z,33.20
2022-11-29T19:54:10.735Z,33.20
2022-11-29T19:56:39.214Z,35.50
2022-11-29T19:59:08.082Z,32.30
2022-11-29T20:01:42.097Z,33.35
2022-11-29T20:04:13.602Z,35.33
2022-11-29T20:06:42.353Z,29.52
2022-11-29T20:09:10.595Z,31.13
2022-11-29T20:11:38.922Z,29.50
2022-11-29T20:14:08.184Z,32.40
2022-11-29T20:16:37.821Z,31.70
2022-11-29T20:19:09.529Z,29.35
2022-11-29T20:21:43.057Z,29.77
2022-11-29T20:24:12.788Z,31.15
2022-11-29T20:26:42.413Z,33.70
2022-11-29T20:29:12.984Z,33.60
2022-11-29T20:31:49.167Z,33.67
2022-11-29T20:34:17.978Z,33.10
2022-11-29T20:37:08.278Z,34.50
2022-11-29T20:39:42.002Z,32.72
2022-11-29T20:42:31.610Z,31.97
2022-11-29T20:45:01.388Z,32.47
2022-11-29T20:47:34.585Z,32.35
2022-11-29T20:50:02.828Z,32.63
2022-11-29T20:52:39.140Z,35.95
2022-11-29T20:55:09.564Z,33.13
2022-11-29T20:57:38.360Z,32.92
2022-11-29T21:00:07.560Z,33.00
2022-11-29T21:02:35.757Z,35.80
2022-11-29T21:05:03.937Z,33.28
2022-11-29T21:07:33.671Z,30.50
2022-11-29T21:10:02.126Z,30.15
2022-11-29T21:12:31.162Z,33.22
2022-11-29T21:14:59.610Z,33.65
2022-11-29T21:17:33.496Z,32.35
2022-11-29T21:20:02.662Z,30.10
2022-11-29T21:22:38.266Z,28.13
2022-11-29T21:25:11.173Z,27.77
2022-11-29T21:27:39.863Z,30.95
2022-11-29T21:30:13.985Z,33.35
2022-11-29T21:32:42.837Z,32.63
2022-11-29T21:35:10.772Z,32.15
2022-11-29T21:37:40.672Z,35.70
2022-11-29T21:40:10.190Z,36.28
2022-11-29T21:42:38.574Z,35.40
2022-11-29T21:45:13.446Z,30.33
2022-11-29T21:47:43.826Z,30.92
2022-11-29T21:50:12.772Z,32.15
2022-11-29T21:52:44.152Z,29.58
2022-11-29T21:55:12.153Z,30.80
2022-11-29T21:57:40.286Z,33.60
2022-11-29T22:00:09.582Z,29.33
2022-11-29T22:02:37.826Z,29.77
2022-11-29T22:05:07.845Z,132.40
2022-11-29T22:07:36.074Z,97.78
2022-11-29T22:10:12.960Z,54.37
2022-11-29T22:12:51.378Z,41.40
2022-11-29T22:15:24.421Z,44.50
2022-11-29T22:17:54.022Z,37.28
2022-11-29T22:20:22.104Z,34.40
2022-11-29T22:22:51.757Z,34.43
2022-11-29T22:25:23.858Z,33.20
2022-11-29T22:27:52.051Z,29.98
2022-11-29T22:30:21.132Z,32.58
2022-11-29T22:32:49.472Z,30.25
2022-11-29T22:35:17.414Z,31.10
2022-11-29T22:37:45.721Z,32.45
2022-11-29T22:40:14.072Z,32.10
2022-11-29T22:42:43.621Z,32.25
2022-11-29T22:45:12.218Z,32.78
2022-11-29T22:47:40.371Z,29.50
2022-11-29T22:50:09.316Z,31.48
2022-11-29T22:52:37.677Z,29.65
2022-11-29T22:55:06.253Z,32.47
2022-11-29T22:57:34.442Z,31.60
2022-11-29T23:00:04.378Z,28.20
2022-11-29T23:02:32.743Z,30.10
2022-11-29T23:05:00.816Z,28.25
2022-11-29T23:07:29.067Z,30.40
2022-11-29T23:09:57.153Z,31.20
2022-11-29T23:12:25.423Z,32.90
2022-11-29T23:14:56.635Z,28.15
2022-11-29T23:17:26.463Z,27.80
2022-11-29T23:19:54.541Z,29.20
2022-11-29T23:22:22.712Z,28.85
2022-11-29T23:24:50.595Z,30.60
2022-11-29T23:27:18.738Z,30.42
2022-11-29T23:29:46.620Z,32.20
2022-11-29T23:32:14.777Z,29.88
2022-11-29T23:34:44.234Z,30.65
2022-11-29T23:37:12.624Z,30.07
2022-11-29T23:39:40.575Z,29.65
2022-11-29T23:42:11.508Z,31.70
2022-11-29T23:44:39.372Z,31.75
2022-11-29T23:47:07.702Z,28.23
2022-11-29T23:49:39.677Z,29.90
2022-11-29T23:52:09.133Z,30.35
2022-11-29T23:54:37.058Z,30.27
2022-11-29T23:57:05.322Z,31.98
2022-11-29T23:59:33.201Z,28.73
